Adolph, Minnesota
Current Conditions -  °F | °C
As of 6:55 PM on Monday 20 Oct 2014 (Local Time) from KDLH Reporting Station
Overcast Overcast  
Wind Chill: 43°   Ceiling: 2400
Heat Index: 47°   Visibility: 10mi
Dew Point: 36°   Wind: 8mph
Humidity: 66%   Direction: 20°NNE
Pressure: 30.06"   Gusts: NA
Location:  46.78°N, 92.28°W
Report Text: KDLH 202355Z 02007KT 10SM OVC024 08/02 A3006 RMK AO2 SLP191 T00830022 10100 20083 51020
Loading
Personal Weather Stations






























Interactive Weather Map
Tropical Storm Tracking
New forecast layout! Learn more

10-Day Weather Forecast

Advertisements
Track Severe Weather on mobile